Terminal Aerodrome Forecast
Issued by NWS

Home | Current Version | Previous Version | Text Only | Print | Product List | Glossary On
Versions: 1 2 3 4 5 6 7 8 9 10 11 12 13 14 15 16 17 18 19
024
FTUS46 KLOX 252024 AAA
TAFSBP
TAF AMD
KSBP 252024Z 2520/2618 VRB04KT P6SM SKC
     FM252200 29008KT P6SM SKC
     FM260300 VRB05KT P6SM SKC
     FM260600 VRB05KT 2SM BR OVC003
     FM261200 VRB03KT 1/2SM FG OVC002
     FM261500 VRB03KT 2SM BR OVC003
     FM261600 VRB03KT P6SM SKC=

USA.gov is the U.S. government's official web portal to all federal, state and local government web resources and services.